createdAt,value
2023-12-21T00:01:45.362Z,8.78
2023-12-21T00:05:05.014Z,8.75
2023-12-21T00:08:34.634Z,8.73
2023-12-21T00:12:03.960Z,8.68
2023-12-21T00:15:33.285Z,8.61
2023-12-21T00:19:02.698Z,8.52
2023-12-21T00:22:34.058Z,8.45
2023-12-21T00:26:03.512Z,8.41
2023-12-21T00:29:23.176Z,8.33
2023-12-21T00:32:52.426Z,8.30
2023-12-21T00:36:15.016Z,8.30
2023-12-21T00:39:45.629Z,8.30
2023-12-21T00:43:08.113Z,8.29
2023-12-21T00:46:37.499Z,8.34
2023-12-21T00:49:56.039Z,8.40
2023-12-21T00:53:24.589Z,8.42
2023-12-21T00:56:53.501Z,8.44
2023-12-21T01:00:22.832Z,8.45
2023-12-21T01:03:52.295Z,8.49
2023-12-21T01:07:11.844Z,8.57
2023-12-21T01:10:40.519Z,8.63
2023-12-21T01:14:11.178Z,8.73
2023-12-21T01:17:39.956Z,8.82
2023-12-21T01:21:09.735Z,8.91
2023-12-21T01:24:38.962Z,8.93
2023-12-21T01:27:58.090Z,8.93
2023-12-21T01:31:20.159Z,8.92
2023-12-21T01:34:50.570Z,8.90
2023-12-21T01:38:19.851Z,8.86
2023-12-21T01:41:49.049Z,8.88
2023-12-21T01:45:18.537Z,8.91
2023-12-21T01:48:48.217Z,8.86
2023-12-21T01:52:17.676Z,8.85
2023-12-21T01:55:47.058Z,8.79
2023-12-21T01:59:12.808Z,8.76
2023-12-21T02:02:42.793Z,8.79
2023-12-21T02:06:12.350Z,8.82
2023-12-21T02:09:34.380Z,8.83
2023-12-21T02:12:57.304Z,8.84
2023-12-21T02:16:26.671Z,8.84
2023-12-21T02:19:56.320Z,8.81
2023-12-21T02:23:26.211Z,8.85
2023-12-21T02:26:56.614Z,8.86
2023-12-21T02:30:25.960Z,8.91
2023-12-21T02:33:55.840Z,8.95
2023-12-21T02:37:25.515Z,8.88
2023-12-21T02:40:38.304Z,8.87
2023-12-21T02:44:07.875Z,8.93
2023-12-21T02:47:37.288Z,9.03
2023-12-21T02:51:07.112Z,9.12
2023-12-21T02:54:36.443Z,9.17
2023-12-21T02:58:05.200Z,9.16
2023-12-21T03:01:33.887Z,9.09
2023-12-21T03:05:04.446Z,8.96
2023-12-21T03:08:34.110Z,8.95
2023-12-21T03:12:03.371Z,8.89
2023-12-21T03:15:33.604Z,8.81
2023-12-21T03:19:03.029Z,8.72
2023-12-21T03:22:35.824Z,8.63
2023-12-21T03:25:55.026Z,8.55
2023-12-21T03:29:24.447Z,8.47
2023-12-21T03:32:34.202Z,8.42
2023-12-21T03:35:56.392Z,8.33
2023-12-21T03:39:25.895Z,8.23
2023-12-21T03:42:55.569Z,8.14
2023-12-21T03:46:24.978Z,8.07
2023-12-21T03:49:54.338Z,8.03
2023-12-21T03:53:23.710Z,8.03
2023-12-21T03:56:53.478Z,7.99
2023-12-21T04:00:22.670Z,7.96
2023-12-21T04:03:52.086Z,7.92
2023-12-21T04:07:21.170Z,7.86
2023-12-21T04:10:51.707Z,7.82
2023-12-21T04:14:14.735Z,7.80
2023-12-21T04:17:17.565Z,7.79
2023-12-21T04:20:27.545Z,7.77
2023-12-21T04:23:56.991Z,7.77
2023-12-21T04:27:16.580Z,7.78
2023-12-21T04:30:46.278Z,7.75
2023-12-21T04:34:17.278Z,7.73
2023-12-21T04:37:47.055Z,7.71
2023-12-21T04:41:16.436Z,7.69
2023-12-21T04:44:18.023Z,7.67
2023-12-21T04:47:47.435Z,7.66
2023-12-21T04:51:16.950Z,7.65
2023-12-21T04:54:46.566Z,7.62
2023-12-21T04:58:15.891Z,7.62
2023-12-21T05:01:35.569Z,7.62
2023-12-21T05:05:04.858Z,7.60
2023-12-21T05:08:34.068Z,7.60
2023-12-21T05:12:03.521Z,7.57
2023-12-21T05:15:23.383Z,7.57
2023-12-21T05:18:51.797Z,7.60
2023-12-21T05:22:14.737Z,7.66
2023-12-21T05:25:34.914Z,7.66
2023-12-21T05:28:54.467Z,7.70
2023-12-21T05:32:19.698Z,7.71
2023-12-21T05:35:50.173Z,7.72
2023-12-21T05:39:19.583Z,7.82
2023-12-21T05:42:49.505Z,7.95
2023-12-21T05:46:09.462Z,8.07
2023-12-21T05:49:39.221Z,8.18
2023-12-21T05:52:59.731Z,8.20
2023-12-21T05:56:28.441Z,8.23
2023-12-21T05:59:58.742Z,8.31
2023-12-21T06:03:28.349Z,8.32
2023-12-21T06:06:57.711Z,8.30
2023-12-21T06:10:27.324Z,8.33
2023-12-21T06:13:57.064Z,8.36
2023-12-21T06:17:26.665Z,8.40
2023-12-21T06:20:56.118Z,8.44
2023-12-21T06:24:25.539Z,8.53
2023-12-21T06:27:25.864Z,8.59
2023-12-21T06:30:27.985Z,8.64
2023-12-21T06:33:40.687Z,8.67
2023-12-21T06:37:11.365Z,8.66
2023-12-21T06:40:39.368Z,8.67
2023-12-21T06:44:07.978Z,8.68
2023-12-21T06:47:37.387Z,8.68
2023-12-21T06:51:06.852Z,8.68
2023-12-21T06:54:36.518Z,8.71
2023-12-21T06:57:58.394Z,8.77
2023-12-21T07:01:27.793Z,8.81
2023-12-21T07:04:56.677Z,8.83
2023-12-21T07:08:19.029Z,8.86
2023-12-21T07:11:49.616Z,8.85
2023-12-21T07:15:19.073Z,8.90
2023-12-21T07:18:30.799Z,8.93
2023-12-21T07:22:00.227Z,8.99
2023-12-21T07:25:29.492Z,9.07
2023-12-21T07:28:59.219Z,9.07
2023-12-21T07:32:29.275Z,9.06
2023-12-21T07:35:52.301Z,9.01
2023-12-21T07:39:05.395Z,8.96
2023-12-21T07:42:35.272Z,8.87
2023-12-21T07:45:44.967Z,8.82
2023-12-21T07:49:04.589Z,8.77
2023-12-21T07:52:34.241Z,8.74
2023-12-21T07:56:05.365Z,8.69
2023-12-21T07:59:36.131Z,8.58
2023-12-21T08:03:05.694Z,8.47
2023-12-21T08:06:39.709Z,8.38
2023-12-21T08:10:09.129Z,8.32
2023-12-21T08:13:38.495Z,8.24
2023-12-21T08:17:17.368Z,8.18
2023-12-21T08:20:47.187Z,8.12
2023-12-21T08:24:16.598Z,8.06
2023-12-21T08:27:46.031Z,7.99
2023-12-21T08:31:15.638Z,7.93
2023-12-21T08:34:45.009Z,7.89
2023-12-21T08:38:14.352Z,7.87
2023-12-21T08:41:44.019Z,7.83
2023-12-21T08:45:13.475Z,7.80
2023-12-21T08:48:42.649Z,7.75
2023-12-21T08:51:51.882Z,7.71
2023-12-21T08:55:15.330Z,7.67
2023-12-21T08:58:44.939Z,7.66
2023-12-21T09:02:14.574Z,7.63
2023-12-21T09:05:46.074Z,7.62
2023-12-21T09:09:15.463Z,7.62
2023-12-21T09:12:45.129Z,7.62
2023-12-21T09:16:13.452Z,7.63
2023-12-21T09:19:28.497Z,7.62
2023-12-21T09:22:58.600Z,7.60
2023-12-21T09:26:28.829Z,7.58
2023-12-21T09:29:58.434Z,7.56
2023-12-21T09:33:11.352Z,7.56
2023-12-21T09:36:40.706Z,7.57
2023-12-21T09:40:10.568Z,7.60
2023-12-21T09:43:40.473Z,7.60
2023-12-21T09:47:10.062Z,7.63
2023-12-21T09:50:39.338Z,7.68
2023-12-21T09:54:07.644Z,7.73
2023-12-21T09:57:36.025Z,7.77
2023-12-21T10:00:59.311Z,7.82
2023-12-21T10:04:22.091Z,7.88
2023-12-21T10:07:51.838Z,7.95
2023-12-21T10:11:22.446Z,8.03
2023-12-21T10:14:45.063Z,8.12
2023-12-21T10:18:14.805Z,8.21
2023-12-21T10:21:44.651Z,8.32
2023-12-21T10:25:14.168Z,8.39
2023-12-21T10:28:44.189Z,8.43
2023-12-21T10:32:13.412Z,8.48
2023-12-21T10:35:43.255Z,8.52
2023-12-21T10:39:12.799Z,8.59
2023-12-21T10:42:45.679Z,8.65
2023-12-21T10:46:15.162Z,8.68
2023-12-21T10:49:44.858Z,8.72
2023-12-21T10:53:07.286Z,8.78
2023-12-21T10:56:36.610Z,8.85
2023-12-21T11:00:06.093Z,8.88
2023-12-21T11:03:19.220Z,8.89
2023-12-21T11:06:38.413Z,8.94
2023-12-21T11:10:07.598Z,8.92
2023-12-21T11:13:37.888Z,8.91
2023-12-21T11:17:19.573Z,8.93
2023-12-21T11:24:14.724Z,8.93
2023-12-21T11:27:44.070Z,9.00
2023-12-21T11:31:13.605Z,9.05
2023-12-21T11:34:36.040Z,9.11
2023-12-21T11:38:21.153Z,9.15
2023-12-21T11:41:43.656Z,9.18
2023-12-21T11:45:18.854Z,9.15
2023-12-21T11:48:38.334Z,9.15
2023-12-21T11:51:51.592Z,9.14
2023-12-21T11:55:24.038Z,9.14
2023-12-21T11:59:02.950Z,9.14
2023-12-21T12:02:32.296Z,9.11
2023-12-21T12:06:05.543Z,9.11
2023-12-21T12:09:35.234Z,9.08
2023-12-21T12:12:57.435Z,9.08
2023-12-21T12:16:26.929Z,9.04
2023-12-21T12:19:50.011Z,8.99
2023-12-21T12:23:19.591Z,8.94
2023-12-21T12:26:49.247Z,8.89
2023-12-21T12:30:18.706Z,8.83
2023-12-21T12:33:41.015Z,8.77
2023-12-21T12:37:11.074Z,8.73
2023-12-21T12:40:40.685Z,8.65
2023-12-21T12:44:10.077Z,8.63
2023-12-21T12:47:39.254Z,8.58
2023-12-21T12:51:10.063Z,8.56
2023-12-21T12:54:39.460Z,8.53
2023-12-21T12:58:12.048Z,8.53
2023-12-21T13:01:41.291Z,8.49
2023-12-21T13:05:10.601Z,8.44
2023-12-21T13:08:40.808Z,8.40
2023-12-21T13:12:10.216Z,8.34
2023-12-21T13:15:39.622Z,8.29
2023-12-21T13:19:09.010Z,8.24
2023-12-21T13:22:38.661Z,8.19
2023-12-21T13:25:58.972Z,8.15
2023-12-21T13:29:10.620Z,8.11
2023-12-21T13:32:39.671Z,8.08
2023-12-21T13:35:52.295Z,8.07
2023-12-21T13:39:20.839Z,8.07
2023-12-21T13:42:50.198Z,8.04
2023-12-21T13:46:19.507Z,8.03
2023-12-21T13:49:49.155Z,8.01
2023-12-21T13:53:09.175Z,7.99
2023-12-21T13:56:31.747Z,7.98
2023-12-21T14:00:02.331Z,7.95
2023-12-21T14:03:32.196Z,7.94
2023-12-21T14:07:01.638Z,7.92
2023-12-21T14:10:30.989Z,7.90
2023-12-21T14:14:00.421Z,7.91
2023-12-21T14:17:30.184Z,7.94
2023-12-21T14:21:01.045Z,7.96
2023-12-21T14:24:30.376Z,7.98
2023-12-21T14:27:44.103Z,8.02
2023-12-21T14:31:13.695Z,8.06
2023-12-21T14:34:43.616Z,8.09
2023-12-21T14:38:12.017Z,8.15
2023-12-21T14:41:41.414Z,8.21
2023-12-21T14:45:01.028Z,8.28
2023-12-21T14:48:30.945Z,8.33
2023-12-21T14:52:00.829Z,8.37
2023-12-21T14:55:30.619Z,8.42
2023-12-21T14:59:00.150Z,8.49
2023-12-21T15:02:31.238Z,8.54
2023-12-21T15:06:00.762Z,8.60
2023-12-21T15:09:30.915Z,8.63
2023-12-21T15:12:53.144Z,8.65
2023-12-21T15:16:22.765Z,8.68
2023-12-21T15:19:52.427Z,8.72
2023-12-21T15:23:21.693Z,8.78
2023-12-21T15:26:51.110Z,8.81
2023-12-21T15:30:20.948Z,8.83
2023-12-21T15:33:50.190Z,8.85
2023-12-21T15:37:19.633Z,8.86
2023-12-21T15:40:49.266Z,8.90
2023-12-21T15:44:08.940Z,8.95
2023-12-21T15:47:38.556Z,9.00
2023-12-21T15:51:08.123Z,9.03
2023-12-21T15:54:37.746Z,9.07
2023-12-21T15:58:07.262Z,9.13
2023-12-21T16:01:37.022Z,9.15
2023-12-21T16:05:06.433Z,9.17
2023-12-21T16:08:34.528Z,9.19
2023-12-21T16:12:04.104Z,9.19
2023-12-21T16:15:33.680Z,9.24
2023-12-21T16:19:03.008Z,9.28
2023-12-21T16:22:32.374Z,9.31
2023-12-21T16:26:00.909Z,9.35
2023-12-21T16:29:30.191Z,9.35
2023-12-21T16:32:52.878Z,9.36
2023-12-21T16:36:22.665Z,9.35
2023-12-21T16:39:51.990Z,9.32
2023-12-21T16:43:21.400Z,9.30
2023-12-21T16:46:50.780Z,9.27
2023-12-21T16:50:20.221Z,9.23
2023-12-21T16:53:40.421Z,9.17
2023-12-21T16:57:01.209Z,9.15
2023-12-21T17:00:29.424Z,9.11
2023-12-21T17:03:59.695Z,9.09
2023-12-21T17:07:29.614Z,9.07
2023-12-21T17:10:58.923Z,9.04
2023-12-21T17:14:11.300Z,9.02
2023-12-21T17:17:41.051Z,9.00
2023-12-21T17:21:09.651Z,9.00
2023-12-21T17:24:38.391Z,9.01
2023-12-21T17:28:00.448Z,8.99
2023-12-21T17:31:29.915Z,8.96
2023-12-21T17:34:59.539Z,8.94
2023-12-21T17:38:28.754Z,8.93
2023-12-21T17:41:58.386Z,8.92
2023-12-21T17:45:21.924Z,8.90
2023-12-21T17:48:51.779Z,8.90
2023-12-21T17:52:21.134Z,8.92
2023-12-21T17:55:51.887Z,8.93
2023-12-21T17:59:22.880Z,8.94
2023-12-21T18:02:52.139Z,8.96
2023-12-21T18:06:21.732Z,8.95
2023-12-21T18:09:51.244Z,8.96
2023-12-21T18:13:20.926Z,8.93
2023-12-21T18:16:50.641Z,8.91
2023-12-21T18:20:23.322Z,8.91
2023-12-21T18:23:52.577Z,8.90
2023-12-21T18:27:22.346Z,8.89
2023-12-21T18:30:51.808Z,8.86
2023-12-21T18:34:21.467Z,8.83
2023-12-21T18:37:51.093Z,8.81
2023-12-21T18:41:21.122Z,8.81
2023-12-21T18:44:43.252Z,8.82
2023-12-21T18:48:12.625Z,8.84
2023-12-21T18:51:42.238Z,8.87
2023-12-21T18:55:02.007Z,8.92
2023-12-21T18:58:31.428Z,8.95
2023-12-21T19:02:01.213Z,9.01
2023-12-21T19:05:13.044Z,9.09
2023-12-21T19:08:42.136Z,9.15
2023-12-21T19:12:13.456Z,9.25
2023-12-21T19:15:42.473Z,9.34
2023-12-21T19:19:11.451Z,9.42
2023-12-21T19:22:20.451Z,9.48
2023-12-21T19:25:49.358Z,9.52
2023-12-21T19:29:12.201Z,9.58
2023-12-21T19:32:34.121Z,9.64
2023-12-21T19:36:03.035Z,9.74
2023-12-21T19:39:32.827Z,9.80
2023-12-21T19:42:53.774Z,9.85
2023-12-21T19:46:22.594Z,9.91
2023-12-21T19:49:51.458Z,10.01
2023-12-21T19:53:12.766Z,10.06
2023-12-21T19:56:43.001Z,10.14
2023-12-21T20:00:14.265Z,10.17
2023-12-21T20:03:43.648Z,10.22
2023-12-21T20:07:11.519Z,10.26
2023-12-21T20:10:40.438Z,10.28
2023-12-21T20:14:01.180Z,10.32
2023-12-21T20:17:30.277Z,10.38
2023-12-21T20:20:59.178Z,10.44
2023-12-21T20:24:28.588Z,10.54
2023-12-21T20:27:58.036Z,10.60
2023-12-21T20:31:21.031Z,10.64
2023-12-21T20:34:51.973Z,10.65
2023-12-21T20:38:21.314Z,10.70
2023-12-21T20:41:43.759Z,10.79
2023-12-21T20:45:01.943Z,10.83
2023-12-21T20:48:31.931Z,10.85
2023-12-21T20:52:00.801Z,10.88
2023-12-21T20:55:30.380Z,10.90
2023-12-21T20:58:59.594Z,10.93
2023-12-21T21:02:29.237Z,10.97
2023-12-21T21:05:58.902Z,10.98
2023-12-21T21:09:27.425Z,10.94
2023-12-21T21:12:56.810Z,10.90
2023-12-21T21:16:26.270Z,10.82
2023-12-21T21:19:37.369Z,10.77
2023-12-21T21:23:07.046Z,10.75
2023-12-21T21:26:28.984Z,10.70
2023-12-21T21:30:00.053Z,10.66
2023-12-21T21:33:12.983Z,10.65
2023-12-21T21:36:33.030Z,10.63
2023-12-21T21:40:02.549Z,10.61
2023-12-21T21:43:29.909Z,10.60
2023-12-21T21:46:59.273Z,10.57
2023-12-21T21:50:28.749Z,10.53
2023-12-21T21:53:58.348Z,10.53
2023-12-21T21:57:17.864Z,10.53
2023-12-21T22:00:48.336Z,10.53
2023-12-21T22:04:11.030Z,10.53
2023-12-21T22:07:31.447Z,10.50
2023-12-21T22:10:55.033Z,10.47
2023-12-21T22:14:24.550Z,10.42
2023-12-21T22:17:37.692Z,10.35
2023-12-21T22:21:07.194Z,10.30
2023-12-21T22:24:36.321Z,10.26
2023-12-21T22:27:58.665Z,10.23
2023-12-21T22:31:28.298Z,10.24
2023-12-21T22:34:47.708Z,10.28
2023-12-21T22:38:17.160Z,10.31
2023-12-21T22:41:45.020Z,10.28
2023-12-21T22:44:58.766Z,10.23
2023-12-21T22:48:28.320Z,10.15
2023-12-21T22:51:58.100Z,10.06
2023-12-21T22:55:17.874Z,9.99
2023-12-21T22:58:28.906Z,9.95
2023-12-21T23:01:51.988Z,9.91
2023-12-21T23:05:21.922Z,9.89
2023-12-21T23:08:50.996Z,9.82
2023-12-21T23:12:20.484Z,9.77
2023-12-21T23:15:32.874Z,9.72
2023-12-21T23:19:02.555Z,9.67
2023-12-21T23:22:25.425Z,9.62
2023-12-21T23:25:45.978Z,9.60
2023-12-21T23:28:58.552Z,9.59
2023-12-21T23:32:30.965Z,9.58
2023-12-21T23:35:50.215Z,9.59
2023-12-21T23:39:13.179Z,9.60
2023-12-21T23:42:34.786Z,9.64
2023-12-21T23:45:47.885Z,9.62
2023-12-21T23:49:17.249Z,9.63
2023-12-21T23:52:47.718Z,9.67
2023-12-21T23:56:06.104Z,9.74
2023-12-21T23:59:37.005Z,9.79
